sensor_id;sensor_type;location;lat;lon;timestamp;temperature;humidity
11908;DHT22;6014;47.690;9.130;2022-10-30T00:01:21;10.50;99.90
11908;DHT22;6014;47.690;9.130;2022-10-30T00:03:49;10.60;99.90
11908;DHT22;6014;47.690;9.130;2022-10-30T00:06:18;10.60;99.90
11908;DHT22;6014;47.690;9.130;2022-10-30T00:08:46;10.60;99.90
11908;DHT22;6014;47.690;9.130;2022-10-30T00:11:14;10.60;99.90
11908;DHT22;6014;47.690;9.130;2022-10-30T00:13:44;10.60;99.90
11908;DHT22;6014;47.690;9.130;2022-10-30T00:16:15;10.60;99.90
11908;DHT22;6014;47.690;9.130;2022-10-30T00:18:43;10.60;99.90
11908;DHT22;6014;47.690;9.130;2022-10-30T00:21:13;10.60;99.90
11908;DHT22;6014;47.690;9.130;2022-10-30T00:23:45;10.60;99.90
11908;DHT22;6014;47.690;9.130;2022-10-30T00:26:14;10.70;99.90
11908;DHT22;6014;47.690;9.130;2022-10-30T00:28:47;10.70;99.90
11908;DHT22;6014;47.690;9.130;2022-10-30T00:31:16;10.70;99.90
11908;DHT22;6014;47.690;9.130;2022-10-30T00:33:48;10.80;99.90
11908;DHT22;6014;47.690;9.130;2022-10-30T00:36:17;10.70;99.90
11908;DHT22;6014;47.690;9.130;2022-10-30T00:38:45;10.70;99.90
11908;DHT22;6014;47.690;9.130;2022-10-30T00:41:14;10.60;99.90
11908;DHT22;6014;47.690;9.130;2022-10-30T00:43:45;10.60;99.90
11908;DHT22;6014;47.690;9.130;2022-10-30T00:46:18;10.60;99.90
11908;DHT22;6014;47.690;9.130;2022-10-30T00:48:53;10.60;99.90
11908;DHT22;6014;47.690;9.130;2022-10-30T00:51:23;10.70;99.90
11908;DHT22;6014;47.690;9.130;2022-10-30T00:53:51;10.70;99.90
11908;DHT22;6014;47.690;9.130;2022-10-30T00:56:21;10.70;99.90
11908;DHT22;6014;47.690;9.130;2022-10-30T00:58:54;10.90;99.90
11908;DHT22;6014;47.690;9.130;2022-10-30T01:01:26;10.90;99.90
11908;DHT22;6014;47.690;9.130;2022-10-30T01:03:57;11.00;99.90
11908;DHT22;6014;47.690;9.130;2022-10-30T01:06:28;11.00;99.90
11908;DHT22;6014;47.690;9.130;2022-10-30T01:08:57;11.00;99.90
11908;DHT22;6014;47.690;9.130;2022-10-30T01:11:26;11.00;99.90
11908;DHT22;6014;47.690;9.130;2022-10-30T01:13:58;11.00;99.90
11908;DHT22;6014;47.690;9.130;2022-10-30T01:16:47;11.10;99.90
11908;DHT22;6014;47.690;9.130;2022-10-30T01:19:29;11.10;99.90
11908;DHT22;6014;47.690;9.130;2022-10-30T01:22:15;11.10;99.90
11908;DHT22;6014;47.690;9.130;2022-10-30T01:24:57;10.90;99.90
11908;DHT22;6014;47.690;9.130;2022-10-30T01:27:38;10.90;99.90
11908;DHT22;6014;47.690;9.130;2022-10-30T01:30:22;10.90;99.90
11908;DHT22;6014;47.690;9.130;2022-10-30T01:33:07;11.00;99.90
11908;DHT22;6014;47.690;9.130;2022-10-30T01:35:46;11.00;99.90
11908;DHT22;6014;47.690;9.130;2022-10-30T01:38:22;11.10;99.90
11908;DHT22;6014;47.690;9.130;2022-10-30T01:40:53;11.10;99.90
11908;DHT22;6014;47.690;9.130;2022-10-30T01:43:21;11.10;99.90
11908;DHT22;6014;47.690;9.130;2022-10-30T01:52:08;10.90;99.90
11908;DHT22;6014;47.690;9.130;2022-10-30T01:54:45;10.70;99.90
11908;DHT22;6014;47.690;9.130;2022-10-30T01:57:24;10.70;99.90
11908;DHT22;6014;47.690;9.130;2022-10-30T02:00:03;10.70;99.90
11908;DHT22;6014;47.690;9.130;2022-10-30T02:02:35;10.60;99.90
11908;DHT22;6014;47.690;9.130;2022-10-30T02:05:06;10.60;99.90
11908;DHT22;6014;47.690;9.130;2022-10-30T02:07:35;10.60;99.90
11908;DHT22;6014;47.690;9.130;2022-10-30T02:10:03;10.60;99.90
11908;DHT22;6014;47.690;9.130;2022-10-30T02:12:32;10.60;99.90
11908;DHT22;6014;47.690;9.130;2022-10-30T02:15:00;10.60;99.90
11908;DHT22;6014;47.690;9.130;2022-10-30T02:17:29;10.70;99.90
11908;DHT22;6014;47.690;9.130;2022-10-30T02:19:59;10.70;99.90
11908;DHT22;6014;47.690;9.130;2022-10-30T02:22:28;10.70;99.90
11908;DHT22;6014;47.690;9.130;2022-10-30T02:24:57;10.70;99.90
11908;DHT22;6014;47.690;9.130;2022-10-30T02:27:25;10.70;99.90
11908;DHT22;6014;47.690;9.130;2022-10-30T02:29:53;10.70;99.90
11908;DHT22;6014;47.690;9.130;2022-10-30T02:32:21;10.70;99.90
11908;DHT22;6014;47.690;9.130;2022-10-30T02:34:50;10.60;99.90
11908;DHT22;6014;47.690;9.130;2022-10-30T02:37:18;10.60;99.90
11908;DHT22;6014;47.690;9.130;2022-10-30T02:39:47;10.70;99.90
11908;DHT22;6014;47.690;9.130;2022-10-30T02:42:16;10.60;99.90
11908;DHT22;6014;47.690;9.130;2022-10-30T02:44:44;10.50;99.90
11908;DHT22;6014;47.690;9.130;2022-10-30T02:47:12;10.50;99.90
11908;DHT22;6014;47.690;9.130;2022-10-30T02:49:41;10.40;99.90
11908;DHT22;6014;47.690;9.130;2022-10-30T02:52:09;10.40;99.90
11908;DHT22;6014;47.690;9.130;2022-10-30T02:54:37;10.40;99.90
11908;DHT22;6014;47.690;9.130;2022-10-30T02:57:08;10.40;99.90
11908;DHT22;6014;47.690;9.130;2022-10-30T02:59:36;10.30;99.90
11908;DHT22;6014;47.690;9.130;2022-10-30T03:02:04;10.20;99.90
11908;DHT22;6014;47.690;9.130;2022-10-30T03:04:33;10.20;99.90
11908;DHT22;6014;47.690;9.130;2022-10-30T03:07:01;10.20;99.90
11908;DHT22;6014;47.690;9.130;2022-10-30T03:09:29;10.10;99.90
11908;DHT22;6014;47.690;9.130;2022-10-30T03:11:58;10.10;99.90
11908;DHT22;6014;47.690;9.130;2022-10-30T03:14:28;10.10;99.90
11908;DHT22;6014;47.690;9.130;2022-10-30T03:16:56;10.20;99.90
11908;DHT22;6014;47.690;9.130;2022-10-30T03:19:24;10.10;99.90
11908;DHT22;6014;47.690;9.130;2022-10-30T03:21:53;10.00;99.90
11908;DHT22;6014;47.690;9.130;2022-10-30T03:24:21;10.00;99.90
11908;DHT22;6014;47.690;9.130;2022-10-30T03:26:49;10.10;99.90
11908;DHT22;6014;47.690;9.130;2022-10-30T03:29:17;10.20;99.90
11908;DHT22;6014;47.690;9.130;2022-10-30T03:31:47;10.20;99.90
11908;DHT22;6014;47.690;9.130;2022-10-30T03:34:15;10.20;99.90
11908;DHT22;6014;47.690;9.130;2022-10-30T03:36:44;10.30;99.90
11908;DHT22;6014;47.690;9.130;2022-10-30T03:39:12;10.30;99.90
11908;DHT22;6014;47.690;9.130;2022-10-30T03:41:40;10.40;99.90
11908;DHT22;6014;47.690;9.130;2022-10-30T03:44:09;10.50;99.90
11908;DHT22;6014;47.690;9.130;2022-10-30T03:46:38;10.50;99.90
11908;DHT22;6014;47.690;9.130;2022-10-30T03:49:07;10.60;99.90
11908;DHT22;6014;47.690;9.130;2022-10-30T03:51:35;10.60;99.90
11908;DHT22;6014;47.690;9.130;2022-10-30T03:54:04;10.80;99.90
11908;DHT22;6014;47.690;9.130;2022-10-30T03:56:32;10.80;99.90
11908;DHT22;6014;47.690;9.130;2022-10-30T03:59:00;10.80;99.90
11908;DHT22;6014;47.690;9.130;2022-10-30T04:01:28;10.70;99.90
11908;DHT22;6014;47.690;9.130;2022-10-30T04:03:57;10.70;99.90
11908;DHT22;6014;47.690;9.130;2022-10-30T04:06:26;10.80;99.90
11908;DHT22;6014;47.690;9.130;2022-10-30T04:08:55;10.90;99.90
11908;DHT22;6014;47.690;9.130;2022-10-30T04:11:23;11.00;99.90
11908;DHT22;6014;47.690;9.130;2022-10-30T04:13:51;11.10;99.90
11908;DHT22;6014;47.690;9.130;2022-10-30T04:16:19;11.10;99.90
11908;DHT22;6014;47.690;9.130;2022-10-30T04:18:48;11.10;99.90
11908;DHT22;6014;47.690;9.130;2022-10-30T04:21:16;11.10;99.90
11908;DHT22;6014;47.690;9.130;2022-10-30T04:23:45;11.10;99.90
11908;DHT22;6014;47.690;9.130;2022-10-30T04:26:14;11.20;99.90
11908;DHT22;6014;47.690;9.130;2022-10-30T04:28:42;11.20;99.90
11908;DHT22;6014;47.690;9.130;2022-10-30T04:31:10;11.20;99.90
11908;DHT22;6014;47.690;9.130;2022-10-30T04:33:38;11.20;99.90
11908;DHT22;6014;47.690;9.130;2022-10-30T04:36:07;11.30;99.90
11908;DHT22;6014;47.690;9.130;2022-10-30T04:38:35;11.20;99.90
11908;DHT22;6014;47.690;9.130;2022-10-30T04:41:06;11.30;99.90
11908;DHT22;6014;47.690;9.130;2022-10-30T04:43:34;11.30;99.90
11908;DHT22;6014;47.690;9.130;2022-10-30T04:46:03;11.40;99.90
11908;DHT22;6014;47.690;9.130;2022-10-30T04:48:32;11.40;99.90
11908;DHT22;6014;47.690;9.130;2022-10-30T04:51:01;11.50;99.90
11908;DHT22;6014;47.690;9.130;2022-10-30T04:53:30;11.40;99.90
11908;DHT22;6014;47.690;9.130;2022-10-30T04:55:58;11.40;99.90
11908;DHT22;6014;47.690;9.130;2022-10-30T04:58:28;11.40;99.90
11908;DHT22;6014;47.690;9.130;2022-10-30T05:01:00;11.40;99.90
11908;DHT22;6014;47.690;9.130;2022-10-30T05:03:29;11.50;99.90
11908;DHT22;6014;47.690;9.130;2022-10-30T05:05:59;11.40;99.90
11908;DHT22;6014;47.690;9.130;2022-10-30T05:08:29;11.40;99.90
11908;DHT22;6014;47.690;9.130;2022-10-30T05:10:57;11.30;99.90
11908;DHT22;6014;47.690;9.130;2022-10-30T05:13:27;11.40;99.90
11908;DHT22;6014;47.690;9.130;2022-10-30T05:15:55;11.40;99.90
11908;DHT22;6014;47.690;9.130;2022-10-30T05:18:24;11.40;99.90
11908;DHT22;6014;47.690;9.130;2022-10-30T05:20:52;11.50;99.90
11908;DHT22;6014;47.690;9.130;2022-10-30T05:23:20;11.50;99.90
11908;DHT22;6014;47.690;9.130;2022-10-30T05:25:48;11.50;99.90
11908;DHT22;6014;47.690;9.130;2022-10-30T05:28:16;11.50;99.90
11908;DHT22;6014;47.690;9.130;2022-10-30T05:30:46;11.50;99.90
11908;DHT22;6014;47.690;9.130;2022-10-30T05:33:14;11.50;99.90
11908;DHT22;6014;47.690;9.130;2022-10-30T05:35:43;11.40;99.90
11908;DHT22;6014;47.690;9.130;2022-10-30T05:38:12;11.40;99.90
11908;DHT22;6014;47.690;9.130;2022-10-30T05:40:40;11.50;99.90
11908;DHT22;6014;47.690;9.130;2022-10-30T05:43:08;11.50;99.90
11908;DHT22;6014;47.690;9.130;2022-10-30T05:45:37;11.60;99.90
11908;DHT22;6014;47.690;9.130;2022-10-30T05:48:06;11.60;99.90
11908;DHT22;6014;47.690;9.130;2022-10-30T05:50:35;11.60;99.90
11908;DHT22;6014;47.690;9.130;2022-10-30T05:53:04;11.60;99.90
11908;DHT22;6014;47.690;9.130;2022-10-30T05:55:32;11.70;99.90
11908;DHT22;6014;47.690;9.130;2022-10-30T05:58:03;11.70;99.90
11908;DHT22;6014;47.690;9.130;2022-10-30T06:00:35;11.60;99.90
11908;DHT22;6014;47.690;9.130;2022-10-30T06:03:09;11.60;99.90
11908;DHT22;6014;47.690;9.130;2022-10-30T06:05:39;11.70;99.90
11908;DHT22;6014;47.690;9.130;2022-10-30T06:08:08;11.70;99.90
11908;DHT22;6014;47.690;9.130;2022-10-30T06:10:36;11.70;99.90
11908;DHT22;6014;47.690;9.130;2022-10-30T06:13:05;11.50;99.90
11908;DHT22;6014;47.690;9.130;2022-10-30T06:15:34;11.50;99.90
11908;DHT22;6014;47.690;9.130;2022-10-30T06:18:03;11.60;99.90
11908;DHT22;6014;47.690;9.130;2022-10-30T06:20:32;11.50;99.90
11908;DHT22;6014;47.690;9.130;2022-10-30T06:23:02;11.50;99.90
11908;DHT22;6014;47.690;9.130;2022-10-30T06:25:33;11.60;99.90
11908;DHT22;6014;47.690;9.130;2022-10-30T06:28:07;11.50;99.90
11908;DHT22;6014;47.690;9.130;2022-10-30T06:30:36;11.50;99.90
11908;DHT22;6014;47.690;9.130;2022-10-30T06:33:05;11.50;99.90
11908;DHT22;6014;47.690;9.130;2022-10-30T06:35:34;11.50;99.90
11908;DHT22;6014;47.690;9.130;2022-10-30T06:38:03;11.50;99.90
11908;DHT22;6014;47.690;9.130;2022-10-30T06:40:31;11.60;99.90
11908;DHT22;6014;47.690;9.130;2022-10-30T06:42:59;11.60;99.90
11908;DHT22;6014;47.690;9.130;2022-10-30T06:45:28;11.60;99.90
11908;DHT22;6014;47.690;9.130;2022-10-30T06:47:56;11.70;99.90
11908;DHT22;6014;47.690;9.130;2022-10-30T06:50:27;11.70;99.90
11908;DHT22;6014;47.690;9.130;2022-10-30T06:52:57;11.60;99.90
11908;DHT22;6014;47.690;9.130;2022-10-30T06:55:25;11.60;99.90
11908;DHT22;6014;47.690;9.130;2022-10-30T06:57:54;11.70;99.90
11908;DHT22;6014;47.690;9.130;2022-10-30T07:00:24;11.70;99.90
11908;DHT22;6014;47.690;9.130;2022-10-30T07:02:57;11.60;99.90
11908;DHT22;6014;47.690;9.130;2022-10-30T07:05:27;11.60;99.90
11908;DHT22;6014;47.690;9.130;2022-10-30T07:07:57;11.60;99.90
11908;DHT22;6014;47.690;9.130;2022-10-30T07:10:25;11.70;99.90
11908;DHT22;6014;47.690;9.130;2022-10-30T07:12:54;11.80;99.90
11908;DHT22;6014;47.690;9.130;2022-10-30T07:15:25;11.80;99.90
11908;DHT22;6014;47.690;9.130;2022-10-30T07:17:54;11.70;99.90
11908;DHT22;6014;47.690;9.130;2022-10-30T07:20:25;11.70;99.90
11908;DHT22;6014;47.690;9.130;2022-10-30T07:22:54;11.80;99.90
11908;DHT22;6014;47.690;9.130;2022-10-30T07:25:24;11.80;99.90
11908;DHT22;6014;47.690;9.130;2022-10-30T07:27:54;11.70;99.90
11908;DHT22;6014;47.690;9.130;2022-10-30T07:30:25;11.90;99.90
11908;DHT22;6014;47.690;9.130;2022-10-30T07:32:58;11.90;99.90
11908;DHT22;6014;47.690;9.130;2022-10-30T07:35:29;11.90;99.90
11908;DHT22;6014;47.690;9.130;2022-10-30T07:38:01;11.90;99.90
11908;DHT22;6014;47.690;9.130;2022-10-30T07:40:31;12.00;99.90
11908;DHT22;6014;47.690;9.130;2022-10-30T07:43:01;12.10;99.90
11908;DHT22;6014;47.690;9.130;2022-10-30T07:45:30;12.10;99.90
11908;DHT22;6014;47.690;9.130;2022-10-30T07:47:58;12.10;99.90
11908;DHT22;6014;47.690;9.130;2022-10-30T07:50:27;12.20;99.90
11908;DHT22;6014;47.690;9.130;2022-10-30T07:52:56;12.20;99.90
11908;DHT22;6014;47.690;9.130;2022-10-30T07:55:25;12.30;99.90
11908;DHT22;6014;47.690;9.130;2022-10-30T07:57:55;12.30;99.90
11908;DHT22;6014;47.690;9.130;2022-10-30T08:00:24;12.30;99.90
11908;DHT22;6014;47.690;9.130;2022-10-30T08:02:55;12.40;99.90
11908;DHT22;6014;47.690;9.130;2022-10-30T08:05:25;12.50;99.90
11908;DHT22;6014;47.690;9.130;2022-10-30T08:07:55;12.60;99.90
11908;DHT22;6014;47.690;9.130;2022-10-30T08:10:24;12.60;99.90
11908;DHT22;6014;47.690;9.130;2022-10-30T08:12:54;12.80;99.90
11908;DHT22;6014;47.690;9.130;2022-10-30T08:15:22;13.00;99.90
11908;DHT22;6014;47.690;9.130;2022-10-30T08:17:51;13.00;99.90
11908;DHT22;6014;47.690;9.130;2022-10-30T08:20:22;13.00;99.90
11908;DHT22;6014;47.690;9.130;2022-10-30T08:22:51;12.90;99.90
11908;DHT22;6014;47.690;9.130;2022-10-30T08:25:22;12.60;99.90
11908;DHT22;6014;47.690;9.130;2022-10-30T08:27:55;12.60;99.90
11908;DHT22;6014;47.690;9.130;2022-10-30T08:30:27;12.60;99.90
11908;DHT22;6014;47.690;9.130;2022-10-30T08:32:57;12.70;99.90
11908;DHT22;6014;47.690;9.130;2022-10-30T08:35:26;12.70;99.90
11908;DHT22;6014;47.690;9.130;2022-10-30T08:37:55;12.50;99.90
11908;DHT22;6014;47.690;9.130;2022-10-30T08:40:24;12.60;99.90
11908;DHT22;6014;47.690;9.130;2022-10-30T08:42:56;12.60;99.90
11908;DHT22;6014;47.690;9.130;2022-10-30T08:45:24;12.60;99.90
11908;DHT22;6014;47.690;9.130;2022-10-30T08:47:57;12.70;99.90
11908;DHT22;6014;47.690;9.130;2022-10-30T08:50:27;12.70;99.90
11908;DHT22;6014;47.690;9.130;2022-10-30T08:52:59;12.80;99.90
11908;DHT22;6014;47.690;9.130;2022-10-30T08:55:36;12.80;99.90
11908;DHT22;6014;47.690;9.130;2022-10-30T08:58:06;13.10;99.90
11908;DHT22;6014;47.690;9.130;2022-10-30T09:00:48;13.00;99.90
11908;DHT22;6014;47.690;9.130;2022-10-30T09:03:17;13.00;99.90
11908;DHT22;6014;47.690;9.130;2022-10-30T09:05:45;13.00;99.90
11908;DHT22;6014;47.690;9.130;2022-10-30T09:08:13;13.20;99.90
11908;DHT22;6014;47.690;9.130;2022-10-30T09:10:42;13.30;99.90
11908;DHT22;6014;47.690;9.130;2022-10-30T09:13:12;13.20;99.90
11908;DHT22;6014;47.690;9.130;2022-10-30T09:15:40;13.20;99.90
11908;DHT22;6014;47.690;9.130;2022-10-30T09:18:08;13.20;99.90
11908;DHT22;6014;47.690;9.130;2022-10-30T09:20:37;13.20;99.90
11908;DHT22;6014;47.690;9.130;2022-10-30T09:23:05;13.10;99.90
11908;DHT22;6014;47.690;9.130;2022-10-30T09:25:33;13.30;99.90
11908;DHT22;6014;47.690;9.130;2022-10-30T09:28:02;13.30;99.90
11908;DHT22;6014;47.690;9.130;2022-10-30T09:30:31;13.30;99.90
11908;DHT22;6014;47.690;9.130;2022-10-30T09:33:00;13.40;99.90
11908;DHT22;6014;47.690;9.130;2022-10-30T09:35:30;13.40;99.90
11908;DHT22;6014;47.690;9.130;2022-10-30T09:37:59;13.50;99.90
11908;DHT22;6014;47.690;9.130;2022-10-30T09:40:36;13.60;99.90
11908;DHT22;6014;47.690;9.130;2022-10-30T09:43:21;13.90;99.90
11908;DHT22;6014;47.690;9.130;2022-10-30T09:46:17;13.90;99.90
11908;DHT22;6014;47.690;9.130;2022-10-30T09:49:11;14.10;99.90
11908;DHT22;6014;47.690;9.130;2022-10-30T09:52:12;13.90;99.90
11908;DHT22;6014;47.690;9.130;2022-10-30T09:54:56;14.00;99.90
11908;DHT22;6014;47.690;9.130;2022-10-30T09:57:45;14.00;99.90
11908;DHT22;6014;47.690;9.130;2022-10-30T10:00:19;14.30;99.90
11908;DHT22;6014;47.690;9.130;2022-10-30T10:03:04;14.30;99.90
11908;DHT22;6014;47.690;9.130;2022-10-30T10:05:42;14.60;99.90
11908;DHT22;6014;47.690;9.130;2022-10-30T10:08:15;14.50;99.90
11908;DHT22;6014;47.690;9.130;2022-10-30T10:10:48;14.60;99.90
11908;DHT22;6014;47.690;9.130;2022-10-30T10:13:31;14.60;99.90
11908;DHT22;6014;47.690;9.130;2022-10-30T10:16:09;14.70;99.90
11908;DHT22;6014;47.690;9.130;2022-10-30T10:18:45;14.80;99.90
11908;DHT22;6014;47.690;9.130;2022-10-30T10:21:24;15.00;99.90
11908;DHT22;6014;47.690;9.130;2022-10-30T10:23:55;14.80;99.90
11908;DHT22;6014;47.690;9.130;2022-10-30T10:26:28;14.70;99.90
11908;DHT22;6014;47.690;9.130;2022-10-30T10:29:11;14.90;99.90
11908;DHT22;6014;47.690;9.130;2022-10-30T10:32:09;14.80;99.90
11908;DHT22;6014;47.690;9.130;2022-10-30T10:35:32;14.90;99.90
11908;DHT22;6014;47.690;9.130;2022-10-30T10:38:18;14.90;99.90
11908;DHT22;6014;47.690;9.130;2022-10-30T10:40:59;15.00;99.90
11908;DHT22;6014;47.690;9.130;2022-10-30T10:43:42;15.20;99.90
11908;DHT22;6014;47.690;9.130;2022-10-30T10:46:36;15.10;99.90
11908;DHT22;6014;47.690;9.130;2022-10-30T10:49:33;15.20;99.90
11908;DHT22;6014;47.690;9.130;2022-10-30T10:52:09;15.10;99.90
11908;DHT22;6014;47.690;9.130;2022-10-30T10:54:43;15.10;99.90
11908;DHT22;6014;47.690;9.130;2022-10-30T10:57:24;15.10;99.90
11908;DHT22;6014;47.690;9.130;2022-10-30T10:59:55;15.30;99.90
11908;DHT22;6014;47.690;9.130;2022-10-30T11:02:34;15.40;99.90
11908;DHT22;6014;47.690;9.130;2022-10-30T11:05:11;15.10;99.90
11908;DHT22;6014;47.690;9.130;2022-10-30T11:07:48;15.20;99.90
11908;DHT22;6014;47.690;9.130;2022-10-30T11:10:19;15.40;99.90
11908;DHT22;6014;47.690;9.130;2022-10-30T11:12:49;15.30;99.90
11908;DHT22;6014;47.690;9.130;2022-10-30T11:15:24;15.40;99.90
11908;DHT22;6014;47.690;9.130;2022-10-30T11:17:59;15.10;99.90
11908;DHT22;6014;47.690;9.130;2022-10-30T11:20:35;15.10;99.90
11908;DHT22;6014;47.690;9.130;2022-10-30T11:23:32;15.10;99.90
11908;DHT22;6014;47.690;9.130;2022-10-30T11:26:01;15.40;99.90
11908;DHT22;6014;47.690;9.130;2022-10-30T11:28:35;15.40;99.90
11908;DHT22;6014;47.690;9.130;2022-10-30T11:31:23;15.70;99.90
11908;DHT22;6014;47.690;9.130;2022-10-30T11:33:53;15.80;99.90
11908;DHT22;6014;47.690;9.130;2022-10-30T11:36:24;16.00;99.90
11908;DHT22;6014;47.690;9.130;2022-10-30T11:38:57;15.90;99.90
11908;DHT22;6014;47.690;9.130;2022-10-30T11:41:37;16.20;99.90
11908;DHT22;6014;47.690;9.130;2022-10-30T11:44:07;16.70;99.90
11908;DHT22;6014;47.690;9.130;2022-10-30T11:46:36;17.00;99.90
11908;DHT22;6014;47.690;9.130;2022-10-30T11:49:05;16.70;99.90
11908;DHT22;6014;47.690;9.130;2022-10-30T11:51:36;16.90;99.90
11908;DHT22;6014;47.690;9.130;2022-10-30T11:54:15;17.10;99.90
11908;DHT22;6014;47.690;9.130;2022-10-30T11:56:47;17.30;99.90
11908;DHT22;6014;47.690;9.130;2022-10-30T11:59:19;17.60;99.90
11908;DHT22;6014;47.690;9.130;2022-10-30T12:02:00;17.60;99.90
11908;DHT22;6014;47.690;9.130;2022-10-30T12:04:30;17.40;99.90
11908;DHT22;6014;47.690;9.130;2022-10-30T12:07:15;17.30;99.90
11908;DHT22;6014;47.690;9.130;2022-10-30T12:09:48;17.10;99.90
11908;DHT22;6014;47.690;9.130;2022-10-30T12:12:22;17.10;99.90
11908;DHT22;6014;47.690;9.130;2022-10-30T12:14:51;17.10;99.90
11908;DHT22;6014;47.690;9.130;2022-10-30T12:17:20;17.00;99.90
11908;DHT22;6014;47.690;9.130;2022-10-30T12:19:51;17.20;99.90
11908;DHT22;6014;47.690;9.130;2022-10-30T12:22:26;17.40;99.90
11908;DHT22;6014;47.690;9.130;2022-10-30T12:24:57;17.70;99.90
11908;DHT22;6014;47.690;9.130;2022-10-30T12:27:29;17.80;99.90
11908;DHT22;6014;47.690;9.130;2022-10-30T12:30:05;17.80;99.90
11908;DHT22;6014;47.690;9.130;2022-10-30T12:32:42;17.80;99.90
11908;DHT22;6014;47.690;9.130;2022-10-30T12:35:27;18.10;99.90
11908;DHT22;6014;47.690;9.130;2022-10-30T12:38:05;18.30;99.90
11908;DHT22;6014;47.690;9.130;2022-10-30T12:40:42;19.00;99.90
11908;DHT22;6014;47.690;9.130;2022-10-30T12:43:20;19.10;99.90
11908;DHT22;6014;47.690;9.130;2022-10-30T12:45:55;19.00;99.90
11908;DHT22;6014;47.690;9.130;2022-10-30T12:48:32;19.00;99.90
11908;DHT22;6014;47.690;9.130;2022-10-30T12:51:13;19.00;99.90
11908;DHT22;6014;47.690;9.130;2022-10-30T12:53:55;19.20;99.90
11908;DHT22;6014;47.690;9.130;2022-10-30T12:56:30;19.20;99.90
11908;DHT22;6014;47.690;9.130;2022-10-30T12:59:12;19.20;99.90
11908;DHT22;6014;47.690;9.130;2022-10-30T13:01:53;19.10;99.90
11908;DHT22;6014;47.690;9.130;2022-10-30T13:04:26;18.90;99.90
11908;DHT22;6014;47.690;9.130;2022-10-30T13:07:07;18.90;99.90
11908;DHT22;6014;47.690;9.130;2022-10-30T13:09:45;19.00;99.90
11908;DHT22;6014;47.690;9.130;2022-10-30T13:12:32;18.90;99.90
11908;DHT22;6014;47.690;9.130;2022-10-30T13:15:04;19.00;99.90
11908;DHT22;6014;47.690;9.130;2022-10-30T13:17:36;19.20;99.90
11908;DHT22;6014;47.690;9.130;2022-10-30T13:20:11;19.40;99.90
11908;DHT22;6014;47.690;9.130;2022-10-30T13:22:47;19.40;99.90
11908;DHT22;6014;47.690;9.130;2022-10-30T13:25:22;19.20;99.90
11908;DHT22;6014;47.690;9.130;2022-10-30T13:27:59;19.50;99.90
11908;DHT22;6014;47.690;9.130;2022-10-30T13:30:36;19.50;99.90
11908;DHT22;6014;47.690;9.130;2022-10-30T13:33:14;19.60;99.90
11908;DHT22;6014;47.690;9.130;2022-10-30T13:35:49;19.60;99.90
11908;DHT22;6014;47.690;9.130;2022-10-30T13:38:34;19.40;99.90
11908;DHT22;6014;47.690;9.130;2022-10-30T13:41:17;19.40;99.90
11908;DHT22;6014;47.690;9.130;2022-10-30T13:43:55;19.20;99.90
11908;DHT22;6014;47.690;9.130;2022-10-30T13:46:37;19.20;99.90
11908;DHT22;6014;47.690;9.130;2022-10-30T13:49:30;19.10;99.90
11908;DHT22;6014;47.690;9.130;2022-10-30T13:52:12;18.90;99.90
11908;DHT22;6014;47.690;9.130;2022-10-30T13:54:45;18.90;99.90
11908;DHT22;6014;47.690;9.130;2022-10-30T13:57:18;18.80;99.90
11908;DHT22;6014;47.690;9.130;2022-10-30T14:00:01;18.60;99.90
11908;DHT22;6014;47.690;9.130;2022-10-30T14:02:46;18.50;99.90
11908;DHT22;6014;47.690;9.130;2022-10-30T14:05:29;18.70;99.90
11908;DHT22;6014;47.690;9.130;2022-10-30T14:08:07;18.70;99.90
11908;DHT22;6014;47.690;9.130;2022-10-30T14:10:44;18.70;99.90
11908;DHT22;6014;47.690;9.130;2022-10-30T14:13:21;18.70;99.90
11908;DHT22;6014;47.690;9.130;2022-10-30T14:15:57;18.60;99.90
11908;DHT22;6014;47.690;9.130;2022-10-30T14:21:33;18.70;99.90
11908;DHT22;6014;47.690;9.130;2022-10-30T14:24:13;18.60;99.90
11908;DHT22;6014;47.690;9.130;2022-10-30T14:26:48;18.70;99.90
11908;DHT22;6014;47.690;9.130;2022-10-30T14:29:45;18.90;99.90
11908;DHT22;6014;47.690;9.130;2022-10-30T14:32:40;19.00;99.90
11908;DHT22;6014;47.690;9.130;2022-10-30T14:35:37;19.20;99.90
11908;DHT22;6014;47.690;9.130;2022-10-30T14:38:33;19.30;99.90
11908;DHT22;6014;47.690;9.130;2022-10-30T14:41:16;19.30;99.90
11908;DHT22;6014;47.690;9.130;2022-10-30T14:47:30;19.20;99.90
11908;DHT22;6014;47.690;9.130;2022-10-30T14:50:14;18.70;99.90
11908;DHT22;6014;47.690;9.130;2022-10-30T14:53:03;18.30;99.90
11908;DHT22;6014;47.690;9.130;2022-10-30T14:55:56;18.00;99.90
11908;DHT22;6014;47.690;9.130;2022-10-30T14:58:31;17.90;99.90
11908;DHT22;6014;47.690;9.130;2022-10-30T15:01:20;17.80;99.90
11908;DHT22;6014;47.690;9.130;2022-10-30T15:04:13;17.80;99.90
11908;DHT22;6014;47.690;9.130;2022-10-30T15:06:54;17.70;99.90
11908;DHT22;6014;47.690;9.130;2022-10-30T15:09:46;17.70;99.90
11908;DHT22;6014;47.690;9.130;2022-10-30T15:12:37;17.60;99.90
11908;DHT22;6014;47.690;9.130;2022-10-30T15:15:14;17.30;99.90
11908;DHT22;6014;47.690;9.130;2022-10-30T15:17:46;17.20;99.90
11908;DHT22;6014;47.690;9.130;2022-10-30T15:20:19;17.20;99.90
11908;DHT22;6014;47.690;9.130;2022-10-30T15:22:51;17.10;99.90
11908;DHT22;6014;47.690;9.130;2022-10-30T15:25:23;17.00;99.90
11908;DHT22;6014;47.690;9.130;2022-10-30T15:27:53;16.80;99.90
11908;DHT22;6014;47.690;9.130;2022-10-30T15:30:24;16.40;99.90
11908;DHT22;6014;47.690;9.130;2022-10-30T15:32:54;16.30;99.90
11908;DHT22;6014;47.690;9.130;2022-10-30T15:35:25;16.20;99.90
11908;DHT22;6014;47.690;9.130;2022-10-30T15:37:58;16.10;99.90
11908;DHT22;6014;47.690;9.130;2022-10-30T15:40:29;16.00;99.90
11908;DHT22;6014;47.690;9.130;2022-10-30T15:42:59;15.90;99.90
11908;DHT22;6014;47.690;9.130;2022-10-30T15:45:32;15.70;99.90
11908;DHT22;6014;47.690;9.130;2022-10-30T15:48:05;15.60;99.90
11908;DHT22;6014;47.690;9.130;2022-10-30T15:50:40;15.30;99.90
11908;DHT22;6014;47.690;9.130;2022-10-30T15:53:17;15.20;99.90
11908;DHT22;6014;47.690;9.130;2022-10-30T15:55:46;15.00;99.90
11908;DHT22;6014;47.690;9.130;2022-10-30T15:58:19;14.80;99.90
11908;DHT22;6014;47.690;9.130;2022-10-30T16:00:55;14.70;99.90
11908;DHT22;6014;47.690;9.130;2022-10-30T16:03:25;14.60;99.90
11908;DHT22;6014;47.690;9.130;2022-10-30T16:06:05;14.50;99.90
11908;DHT22;6014;47.690;9.130;2022-10-30T16:08:42;14.40;99.90
11908;DHT22;6014;47.690;9.130;2022-10-30T16:11:11;14.30;99.90
11908;DHT22;6014;47.690;9.130;2022-10-30T16:13:40;14.20;99.90
11908;DHT22;6014;47.690;9.130;2022-10-30T16:16:13;14.20;99.90
11908;DHT22;6014;47.690;9.130;2022-10-30T16:18:45;14.10;99.90
11908;DHT22;6014;47.690;9.130;2022-10-30T16:21:17;14.00;99.90
11908;DHT22;6014;47.690;9.130;2022-10-30T16:23:49;13.90;99.90
11908;DHT22;6014;47.690;9.130;2022-10-30T16:26:27;13.80;99.90
11908;DHT22;6014;47.690;9.130;2022-10-30T16:29:00;13.70;99.90
11908;DHT22;6014;47.690;9.130;2022-10-30T16:31:32;13.60;99.90
11908;DHT22;6014;47.690;9.130;2022-10-30T16:34:02;13.50;99.90
11908;DHT22;6014;47.690;9.130;2022-10-30T16:36:33;13.40;99.90